createdAt,value
2017-03-20T00:00:13.516Z,0
2017-03-20T00:01:26.078Z,0
2017-03-20T00:02:37.749Z,0
2017-03-20T00:03:49.947Z,0
2017-03-20T00:05:02.490Z,0
2017-03-20T00:06:14.740Z,0
2017-03-20T00:07:26.666Z,0
2017-03-20T00:08:39.204Z,0
2017-03-20T00:09:51.707Z,0
2017-03-20T00:11:04.233Z,0
2017-03-20T00:12:16.149Z,0
2017-03-20T00:13:28.702Z,0
2017-03-20T00:14:40.945Z,0
2017-03-20T00:15:53.172Z,0
2017-03-20T00:17:05.461Z,0
2017-03-20T00:18:17.709Z,0
2017-03-20T00:19:30.274Z,0
2017-03-20T00:20:42.494Z,0
2017-03-20T00:21:54.424Z,0
2017-03-20T00:23:06.972Z,0
2017-03-20T00:24:19.513Z,0
2017-03-20T00:25:32.076Z,0
2017-03-20T00:26:44.602Z,0
2017-03-20T00:27:57.141Z,0
2017-03-20T00:29:09.409Z,0
2017-03-20T00:30:21.981Z,0
2017-03-20T00:31:34.511Z,0
2017-03-20T00:32:47.029Z,0
2017-03-20T00:33:59.275Z,0
2017-03-20T00:35:11.823Z,0
2017-03-20T00:36:24.345Z,0
2017-03-20T00:37:36.609Z,0
2017-03-20T00:38:48.858Z,0
2017-03-20T00:40:01.130Z,0
2017-03-20T00:41:13.329Z,0
2017-03-20T00:42:25.293Z,0
2017-03-20T00:43:37.819Z,0
2017-03-20T00:44:50.038Z,0
2017-03-20T00:46:02.261Z,0
2017-03-20T00:47:14.786Z,0
2017-03-20T00:48:27.009Z,0
2017-03-20T00:49:39.547Z,0
2017-03-20T00:50:52.073Z,0
2017-03-20T00:52:04.589Z,0
2017-03-20T00:53:16.803Z,0
2017-03-20T00:54:29.330Z,0
2017-03-20T00:55:41.873Z,0
2017-03-20T00:56:54.418Z,0
2017-03-20T00:58:06.369Z,0
2017-03-20T00:59:18.931Z,0
2017-03-20T01:00:30.886Z,0
2017-03-20T01:01:43.410Z,0
2017-03-20T01:02:55.977Z,0
2017-03-20T01:04:07.303Z,0
2017-03-20T01:05:19.822Z,0
2017-03-20T01:06:32.070Z,0
2017-03-20T01:07:44.312Z,0
2017-03-20T01:08:56.852Z,0
2017-03-20T01:10:08.795Z,0
2017-03-20T01:11:21.345Z,0
2017-03-20T01:12:33.270Z,0
2017-03-20T01:13:45.843Z,0
2017-03-20T01:14:58.063Z,0
2017-03-20T01:16:09.984Z,0
2017-03-20T01:17:21.945Z,0
2017-03-20T01:18:34.475Z,0
2017-03-20T01:19:46.716Z,0
2017-03-20T01:20:58.990Z,0
2017-03-20T01:22:11.514Z,0
2017-03-20T01:23:23.766Z,0
2017-03-20T01:24:36.306Z,0
2017-03-20T01:25:48.577Z,0
2017-03-20T01:27:00.800Z,0
2017-03-20T01:28:13.320Z,0
2017-03-20T01:29:25.555Z,0
2017-03-20T01:30:38.064Z,0
2017-03-20T01:31:50.006Z,0
2017-03-20T01:33:02.271Z,0
2017-03-20T01:34:14.514Z,0
2017-03-20T01:35:27.049Z,0
2017-03-20T01:36:39.588Z,0
2017-03-20T01:37:52.109Z,0
2017-03-20T01:39:04.330Z,0
2017-03-20T01:40:16.900Z,0
2017-03-20T01:41:28.828Z,0
2017-03-20T01:42:40.742Z,0
2017-03-20T01:43:52.664Z,0
2017-03-20T01:45:04.910Z,0
2017-03-20T01:46:17.447Z,0
2017-03-20T01:47:29.694Z,0
2017-03-20T01:48:41.615Z,0
2017-03-20T01:49:54.161Z,0
2017-03-20T01:51:06.405Z,0
2017-03-20T01:52:18.628Z,0
2017-03-20T01:53:30.858Z,0
2017-03-20T01:54:43.078Z,0
2017-03-20T01:55:55.324Z,0
2017-03-20T01:57:07.546Z,0
2017-03-20T01:58:20.106Z,0
2017-03-20T01:59:32.655Z,0
2017-03-20T02:00:44.889Z,0
2017-03-20T02:01:57.405Z,0
2017-03-20T02:03:09.630Z,0
2017-03-20T02:04:21.870Z,0
2017-03-20T02:05:34.389Z,0
2017-03-20T02:06:45.721Z,0
2017-03-20T02:07:58.259Z,0
2017-03-20T02:09:10.494Z,0
2017-03-20T02:10:23.026Z,0
2017-03-20T02:11:35.544Z,0
2017-03-20T02:12:47.774Z,0
2017-03-20T02:14:00.329Z,0
2017-03-20T02:15:12.861Z,0
2017-03-20T02:16:25.409Z,0
2017-03-20T02:17:37.949Z,0
2017-03-20T02:18:50.491Z,0
2017-03-20T02:20:03.020Z,0
2017-03-20T02:21:15.262Z,0
2017-03-20T02:22:27.812Z,0
2017-03-20T02:23:40.349Z,0
2017-03-20T02:24:52.278Z,0
2017-03-20T02:26:04.802Z,0
2017-03-20T02:27:17.067Z,0
2017-03-20T02:28:28.679Z,0
2017-03-20T02:29:40.925Z,0
2017-03-20T02:30:52.530Z,0
2017-03-20T02:32:03.878Z,0
2017-03-20T02:33:16.137Z,0
2017-03-20T02:34:28.385Z,0
2017-03-20T02:35:40.623Z,0
2017-03-20T02:36:52.839Z,0
2017-03-20T02:38:05.354Z,0
2017-03-20T02:39:17.280Z,0
2017-03-20T02:40:29.862Z,0
2017-03-20T02:41:42.162Z,0
2017-03-20T02:42:54.688Z,0
2017-03-20T02:44:06.926Z,0
2017-03-20T02:45:18.856Z,0
2017-03-20T02:46:31.352Z,0
2017-03-20T02:47:43.589Z,0
2017-03-20T02:48:55.818Z,0
2017-03-20T02:50:07.745Z,0
2017-03-20T02:51:20.292Z,0
2017-03-20T02:52:32.839Z,0
2017-03-20T02:53:45.093Z,0
2017-03-20T02:54:57.646Z,0
2017-03-20T02:56:09.589Z,0
2017-03-20T02:57:22.107Z,0
2017-03-20T02:58:34.340Z,0
2017-03-20T02:59:46.605Z,0
2017-03-20T03:00:58.856Z,0
2017-03-20T03:02:11.405Z,0
2017-03-20T03:03:23.937Z,0
2017-03-20T03:04:36.514Z,0
2017-03-20T03:05:48.764Z,0
2017-03-20T03:07:01.314Z,0
2017-03-20T03:08:12.955Z,0
2017-03-20T03:09:25.526Z,0
2017-03-20T03:10:38.025Z,0
2017-03-20T03:11:50.273Z,0
2017-03-20T03:13:02.808Z,0
2017-03-20T03:14:15.341Z,0
2017-03-20T03:15:27.582Z,0
2017-03-20T03:16:40.145Z,0
2017-03-20T03:17:52.695Z,0
2017-03-20T03:19:05.243Z,0
2017-03-20T03:20:17.466Z,0
2017-03-20T03:21:29.732Z,0
2017-03-20T03:22:41.679Z,0
2017-03-20T03:23:54.205Z,0
2017-03-20T03:25:06.753Z,0
2017-03-20T03:26:19.287Z,0
2017-03-20T03:27:31.569Z,0
2017-03-20T03:28:43.854Z,0
2017-03-20T03:29:56.325Z,0
2017-03-20T03:31:08.574Z,0
2017-03-20T03:32:20.824Z,0
2017-03-20T03:33:33.347Z,0
2017-03-20T03:34:45.587Z,0
2017-03-20T03:35:57.813Z,0
2017-03-20T03:37:10.080Z,0
2017-03-20T03:38:22.326Z,0
2017-03-20T03:39:34.546Z,0
2017-03-20T03:40:46.472Z,0
2017-03-20T03:41:58.705Z,0
2017-03-20T03:43:10.684Z,0
2017-03-20T03:44:22.935Z,0
2017-03-20T03:45:35.150Z,0
2017-03-20T03:46:47.695Z,0
2017-03-20T03:47:59.922Z,0
2017-03-20T03:49:12.142Z,0
2017-03-20T03:50:24.664Z,0
2017-03-20T03:51:36.598Z,0
2017-03-20T03:52:49.130Z,0
2017-03-20T03:54:01.666Z,0
2017-03-20T03:55:14.170Z,0
2017-03-20T03:56:26.414Z,0
2017-03-20T03:57:38.981Z,0
2017-03-20T03:58:51.223Z,0
2017-03-20T04:00:03.477Z,0
2017-03-20T04:01:16.017Z,0
2017-03-20T04:02:28.796Z,0
2017-03-20T04:03:41.043Z,0
2017-03-20T04:04:52.681Z,0
2017-03-20T04:06:04.923Z,0
2017-03-20T04:07:17.153Z,0
2017-03-20T04:08:29.677Z,0
2017-03-20T04:09:41.915Z,0
2017-03-20T04:10:54.439Z,0
2017-03-20T04:12:06.686Z,0
2017-03-20T04:13:19.211Z,0
2017-03-20T04:14:31.454Z,0
2017-03-20T04:15:43.978Z,0
2017-03-20T04:16:56.513Z,0
2017-03-20T04:18:08.458Z,0
2017-03-20T04:19:20.408Z,0
2017-03-20T04:20:32.913Z,0
2017-03-20T04:21:45.457Z,0
2017-03-20T04:22:57.991Z,0
2017-03-20T04:24:10.548Z,0
2017-03-20T04:25:23.091Z,0
2017-03-20T04:26:35.612Z,0
2017-03-20T04:27:47.584Z,0
2017-03-20T04:29:00.109Z,0
2017-03-20T04:30:12.696Z,0
2017-03-20T04:31:24.615Z,0
2017-03-20T04:32:36.862Z,0
2017-03-20T04:33:49.406Z,0
2017-03-20T04:35:01.304Z,0
2017-03-20T04:36:13.846Z,0
2017-03-20T04:37:26.075Z,0
2017-03-20T04:38:38.624Z,0
2017-03-20T04:39:50.866Z,0
2017-03-20T04:41:03.089Z,0
2017-03-20T04:42:15.330Z,0
2017-03-20T04:43:27.873Z,0
2017-03-20T04:44:40.129Z,0
2017-03-20T04:45:52.417Z,0
2017-03-20T04:47:04.044Z,0
2017-03-20T04:48:16.263Z,0
2017-03-20T04:49:28.805Z,0
2017-03-20T04:50:41.355Z,0
2017-03-20T04:51:53.581Z,0
2017-03-20T04:53:06.089Z,0
2017-03-20T04:54:18.647Z,0
2017-03-20T04:55:30.587Z,0
2017-03-20T04:56:43.114Z,0
2017-03-20T04:57:54.752Z,0
2017-03-20T04:59:06.398Z,0
2017-03-20T05:00:18.645Z,0
2017-03-20T05:01:31.224Z,0
2017-03-20T05:02:43.472Z,0
2017-03-20T05:03:55.711Z,0
2017-03-20T05:05:08.235Z,5
2017-03-20T05:06:20.782Z,5
2017-03-20T05:07:33.068Z,5
2017-03-20T05:08:44.998Z,5
2017-03-20T05:09:57.521Z,0
2017-03-20T05:11:09.763Z,5
2017-03-20T05:12:22.282Z,0
2017-03-20T05:13:34.507Z,5
2017-03-20T05:14:46.791Z,5
2017-03-20T05:15:59.295Z,5
2017-03-20T05:17:11.517Z,10
2017-03-20T05:18:23.462Z,10
2017-03-20T05:19:36.006Z,15
2017-03-20T05:20:48.252Z,10
2017-03-20T05:22:00.194Z,15
2017-03-20T05:23:12.450Z,15
2017-03-20T05:24:24.694Z,15
2017-03-20T05:25:36.655Z,10
2017-03-20T05:26:49.177Z,15
2017-03-20T05:28:01.406Z,15
2017-03-20T05:29:14.004Z,15
2017-03-20T05:30:26.252Z,15
2017-03-20T05:31:38.783Z,20
2017-03-20T05:32:51.013Z,20
2017-03-20T05:34:03.539Z,20
2017-03-20T05:35:16.109Z,25
2017-03-20T05:36:28.625Z,35
2017-03-20T05:37:41.163Z,35
2017-03-20T05:38:53.712Z,40
2017-03-20T05:40:05.942Z,25
2017-03-20T05:41:17.891Z,30
2017-03-20T05:42:30.108Z,30
2017-03-20T05:43:42.668Z,30
2017-03-20T05:44:54.901Z,25
2017-03-20T05:46:07.149Z,25
2017-03-20T05:47:19.690Z,25
2017-03-20T05:48:32.210Z,30
2017-03-20T05:49:44.758Z,30
2017-03-20T05:50:56.693Z,45
2017-03-20T05:52:08.972Z,65
2017-03-20T05:53:21.214Z,50
2017-03-20T05:54:33.810Z,50
2017-03-20T05:55:46.039Z,60
2017-03-20T05:56:58.598Z,80
2017-03-20T05:58:10.847Z,95
2017-03-20T05:59:23.065Z,100
2017-03-20T06:00:35.578Z,80
2017-03-20T06:01:47.821Z,75
2017-03-20T06:02:59.778Z,85
2017-03-20T06:04:12.011Z,95
2017-03-20T06:05:24.269Z,95
2017-03-20T06:06:36.802Z,95
2017-03-20T06:07:48.723Z,95
2017-03-20T06:09:00.643Z,105
2017-03-20T06:10:12.585Z,105
2017-03-20T06:11:25.127Z,105
2017-03-20T06:12:37.676Z,100
2017-03-20T06:13:49.941Z,105
2017-03-20T06:15:01.848Z,120
2017-03-20T06:16:14.361Z,150
2017-03-20T06:17:26.321Z,150
2017-03-20T06:18:38.858Z,160
2017-03-20T06:19:51.101Z,150
2017-03-20T06:21:03.066Z,145
2017-03-20T06:22:15.319Z,135
2017-03-20T06:23:27.819Z,145
2017-03-20T06:24:40.066Z,150
2017-03-20T06:25:52.053Z,150
2017-03-20T06:27:04.582Z,145
2017-03-20T06:28:16.820Z,180
2017-03-20T06:29:28.737Z,155
2017-03-20T06:30:41.263Z,190
2017-03-20T06:31:53.812Z,180
2017-03-20T06:33:06.309Z,210
2017-03-20T06:34:18.858Z,210
2017-03-20T06:35:31.396Z,190
2017-03-20T06:36:43.323Z,185
2017-03-20T06:37:55.867Z,160
2017-03-20T06:39:08.109Z,130
2017-03-20T06:40:20.636Z,125
2017-03-20T06:41:32.884Z,130
2017-03-20T06:42:45.128Z,140
2017-03-20T06:43:57.348Z,150
2017-03-20T06:45:10.159Z,165
2017-03-20T06:46:22.443Z,165
2017-03-20T06:47:34.986Z,115
2017-03-20T06:48:46.940Z,160
2017-03-20T06:49:59.176Z,140
2017-03-20T06:51:11.422Z,135
2017-03-20T06:52:23.960Z,120
2017-03-20T06:53:36.511Z,110
2017-03-20T06:54:48.735Z,105
2017-03-20T06:56:00.955Z,135
2017-03-20T06:57:12.897Z,130
2017-03-20T06:58:25.423Z,145
2017-03-20T06:59:37.673Z,160
2017-03-20T07:00:50.235Z,165
2017-03-20T07:02:02.762Z,185
2017-03-20T07:03:15.027Z,185
2017-03-20T07:04:27.556Z,180
2017-03-20T07:05:40.097Z,190
2017-03-20T07:06:52.618Z,225
2017-03-20T07:08:04.836Z,220
2017-03-20T07:09:17.402Z,185
2017-03-20T07:10:29.346Z,185
2017-03-20T07:11:41.878Z,205
2017-03-20T07:12:54.431Z,190
2017-03-20T07:14:06.408Z,185
2017-03-20T07:15:18.945Z,170
2017-03-20T07:16:31.515Z,190
2017-03-20T07:17:43.457Z,220
2017-03-20T07:18:55.408Z,220
2017-03-20T07:20:07.624Z,185
2017-03-20T07:21:20.174Z,220
2017-03-20T07:22:32.750Z,185
2017-03-20T07:23:45.007Z,200
2017-03-20T07:24:56.650Z,195
2017-03-20T07:26:07.978Z,175
2017-03-20T07:27:20.525Z,180
2017-03-20T07:28:33.050Z,180
2017-03-20T07:29:44.988Z,180
2017-03-20T07:30:57.512Z,190
2017-03-20T07:32:09.751Z,225
2017-03-20T07:33:22.307Z,230
2017-03-20T07:34:34.217Z,220
2017-03-20T07:35:46.799Z,245
2017-03-20T07:36:59.342Z,245
2017-03-20T07:38:11.880Z,240
2017-03-20T07:39:24.377Z,255
2017-03-20T07:40:36.622Z,225
2017-03-20T07:41:48.871Z,215
2017-03-20T07:43:01.404Z,225
2017-03-20T07:44:13.671Z,260
2017-03-20T07:45:26.233Z,285
2017-03-20T07:46:38.481Z,235
2017-03-20T07:47:50.730Z,220
2017-03-20T07:49:02.980Z,200
2017-03-20T07:50:15.217Z,235
2017-03-20T07:51:27.762Z,235
2017-03-20T07:52:40.010Z,255
2017-03-20T07:53:52.256Z,240
2017-03-20T07:55:04.801Z,225
2017-03-20T07:56:17.344Z,210
2017-03-20T07:57:29.892Z,200
2017-03-20T07:58:41.836Z,215
2017-03-20T07:59:54.085Z,215
2017-03-20T08:01:06.870Z,195
2017-03-20T08:02:19.410Z,205
2017-03-20T08:03:31.628Z,215
2017-03-20T08:04:43.901Z,235
2017-03-20T08:05:56.420Z,235
2017-03-20T08:07:08.342Z,220
2017-03-20T08:08:20.269Z,230
2017-03-20T08:09:32.508Z,270
2017-03-20T08:10:45.054Z,265
2017-03-20T08:11:57.302Z,210
2017-03-20T08:13:09.606Z,170
2017-03-20T08:14:21.265Z,160
2017-03-20T08:15:33.470Z,175
2017-03-20T08:16:46.011Z,230
2017-03-20T08:17:58.259Z,280
2017-03-20T08:19:10.801Z,265
2017-03-20T08:20:23.047Z,265
2017-03-20T08:21:35.616Z,320
2017-03-20T08:22:48.190Z,290
2017-03-20T08:24:00.736Z,260
2017-03-20T08:25:12.982Z,270
2017-03-20T08:26:25.478Z,280
2017-03-20T08:27:38.028Z,335
2017-03-20T08:28:50.589Z,380
2017-03-20T08:30:02.830Z,465
2017-03-20T08:31:15.099Z,445
2017-03-20T08:32:27.604Z,425
2017-03-20T08:33:40.127Z,375
2017-03-20T08:34:52.375Z,375
2017-03-20T08:36:04.612Z,330
2017-03-20T08:37:16.842Z,380
2017-03-20T08:38:29.404Z,335
2017-03-20T08:39:41.929Z,335
2017-03-20T08:40:54.454Z,320
2017-03-20T08:42:06.712Z,295
2017-03-20T08:43:18.971Z,310
2017-03-20T08:44:31.489Z,310
2017-03-20T08:45:43.737Z,345
2017-03-20T08:46:55.982Z,320
2017-03-20T08:48:08.519Z,385
2017-03-20T08:49:21.052Z,455
2017-03-20T08:50:33.592Z,430
2017-03-20T08:51:46.117Z,430
2017-03-20T08:52:58.645Z,470
2017-03-20T08:54:10.898Z,500
2017-03-20T08:55:23.429Z,525
2017-03-20T08:56:35.951Z,405
2017-03-20T08:57:48.510Z,415
2017-03-20T08:59:01.059Z,460
2017-03-20T09:00:13.612Z,565
2017-03-20T09:01:25.247Z,530
2017-03-20T09:02:37.802Z,670
2017-03-20T09:03:50.326Z,785
2017-03-20T09:05:02.571Z,720
2017-03-20T09:06:14.510Z,605
2017-03-20T09:07:27.039Z,690
2017-03-20T09:08:39.353Z,825
2017-03-20T09:09:51.902Z,845
2017-03-20T09:11:04.428Z,830
2017-03-20T09:12:16.972Z,785
2017-03-20T09:13:29.514Z,700
2017-03-20T09:14:41.753Z,625
2017-03-20T09:15:54.002Z,590
2017-03-20T09:17:06.545Z,475
2017-03-20T09:18:18.794Z,440
2017-03-20T09:19:31.046Z,330
2017-03-20T09:20:43.584Z,315
2017-03-20T09:21:56.382Z,340
2017-03-20T09:23:08.928Z,365
2017-03-20T09:24:21.481Z,415
2017-03-20T09:25:34.052Z,455
2017-03-20T09:26:46.596Z,375
2017-03-20T09:27:59.136Z,340
2017-03-20T09:29:11.379Z,340
2017-03-20T09:30:23.937Z,355
2017-03-20T09:31:36.179Z,345
2017-03-20T09:32:48.405Z,335
2017-03-20T09:34:00.666Z,310
2017-03-20T09:35:12.293Z,290
2017-03-20T09:36:24.255Z,280
2017-03-20T09:37:36.790Z,275
2017-03-20T09:38:49.335Z,275
2017-03-20T09:40:01.276Z,295
2017-03-20T09:41:13.513Z,280
2017-03-20T09:42:25.441Z,310
2017-03-20T09:43:37.405Z,315
2017-03-20T09:44:49.639Z,330
2017-03-20T09:46:01.874Z,300
2017-03-20T09:47:14.401Z,315
2017-03-20T09:48:26.942Z,345
2017-03-20T09:49:39.196Z,335
2017-03-20T09:50:51.459Z,355
2017-03-20T09:52:04.011Z,365
2017-03-20T09:53:16.555Z,295
2017-03-20T09:54:28.797Z,330
2017-03-20T09:55:41.325Z,335
2017-03-20T09:56:53.859Z,365
2017-03-20T09:58:05.765Z,440
2017-03-20T09:59:18.288Z,415
2017-03-20T10:00:30.483Z,360
2017-03-20T10:01:42.744Z,330
2017-03-20T10:02:54.693Z,315
2017-03-20T10:04:06.940Z,340
2017-03-20T10:05:19.508Z,325
2017-03-20T10:06:31.464Z,350
2017-03-20T10:07:44.010Z,400
2017-03-20T10:08:56.256Z,400
2017-03-20T10:10:08.475Z,415
2017-03-20T10:11:20.394Z,360
2017-03-20T10:12:32.616Z,335
2017-03-20T10:13:44.865Z,340
2017-03-20T10:14:57.428Z,380
2017-03-20T10:16:09.954Z,395
2017-03-20T10:17:21.894Z,315
2017-03-20T10:18:33.823Z,345
2017-03-20T10:19:45.468Z,340
2017-03-20T10:20:57.689Z,365
2017-03-20T10:22:09.612Z,390
2017-03-20T10:23:22.171Z,365
2017-03-20T10:24:34.452Z,300
2017-03-20T10:25:46.688Z,305
2017-03-20T10:26:58.908Z,325
2017-03-20T10:28:11.189Z,375
2017-03-20T10:29:23.114Z,390
2017-03-20T10:30:35.354Z,370
2017-03-20T10:31:47.877Z,385
2017-03-20T10:33:00.096Z,365
2017-03-20T10:34:12.338Z,385
2017-03-20T10:35:24.540Z,370
2017-03-20T10:36:36.184Z,370
2017-03-20T10:37:48.405Z,400
2017-03-20T10:39:00.653Z,420
2017-03-20T10:40:12.296Z,455
2017-03-20T10:41:24.534Z,525
2017-03-20T10:42:37.085Z,595
2017-03-20T10:43:49.638Z,725
2017-03-20T10:45:02.184Z,665
2017-03-20T10:46:14.445Z,555
2017-03-20T10:47:26.377Z,575
2017-03-20T10:48:38.892Z,650
2017-03-20T10:49:51.417Z,770
2017-03-20T10:51:03.953Z,840
2017-03-20T10:52:16.486Z,875
2017-03-20T10:53:28.102Z,895
2017-03-20T10:54:40.329Z,960
2017-03-20T10:55:52.268Z,990
2017-03-20T10:57:04.493Z,955
2017-03-20T10:58:16.114Z,930
2017-03-20T10:59:28.074Z,930
2017-03-20T11:00:40.644Z,950
2017-03-20T11:01:53.173Z,880
2017-03-20T11:03:05.700Z,790
2017-03-20T11:04:17.657Z,760
2017-03-20T11:05:30.204Z,725
2017-03-20T11:06:42.449Z,645
2017-03-20T11:07:54.682Z,620
2017-03-20T11:09:06.944Z,525
2017-03-20T11:10:19.178Z,430
2017-03-20T11:11:31.719Z,455
2017-03-20T11:12:44.289Z,490
2017-03-20T11:13:56.813Z,555
2017-03-20T11:15:09.377Z,585
2017-03-20T11:16:21.618Z,640
2017-03-20T11:17:33.850Z,675
2017-03-20T11:18:46.421Z,705
2017-03-20T11:19:58.985Z,770
2017-03-20T11:21:11.216Z,790
2017-03-20T11:22:23.459Z,800
2017-03-20T11:23:35.979Z,810
2017-03-20T11:24:48.220Z,720
2017-03-20T11:26:00.457Z,695
2017-03-20T11:27:12.715Z,780
2017-03-20T11:28:23.464Z,710
2017-03-20T11:29:35.407Z,710
2017-03-20T11:30:47.658Z,760
2017-03-20T11:31:59.870Z,840
2017-03-20T11:33:12.442Z,810
2017-03-20T11:34:25.018Z,880
2017-03-20T11:35:36.962Z,880
2017-03-20T11:36:49.182Z,850
2017-03-20T11:38:01.354Z,695
2017-03-20T11:39:13.897Z,690
2017-03-20T11:40:26.117Z,740
2017-03-20T11:41:38.643Z,740
2017-03-20T11:42:50.884Z,780
2017-03-20T11:44:03.425Z,715
2017-03-20T11:45:15.649Z,710
2017-03-20T11:46:27.574Z,715
2017-03-20T11:47:39.809Z,745
2017-03-20T11:48:52.057Z,635
2017-03-20T11:50:04.005Z,695
2017-03-20T11:51:15.953Z,905
2017-03-20T11:52:28.494Z,935
2017-03-20T11:53:40.744Z,795
2017-03-20T11:54:52.689Z,640
2017-03-20T11:56:05.215Z,560
2017-03-20T11:57:17.507Z,515
2017-03-20T11:58:29.459Z,535
2017-03-20T11:59:42.023Z,540
2017-03-20T12:00:54.250Z,540
2017-03-20T12:02:06.811Z,505
2017-03-20T12:03:19.069Z,430
2017-03-20T12:04:31.610Z,465
2017-03-20T12:05:43.878Z,510
2017-03-20T12:06:56.419Z,625
2017-03-20T12:08:08.652Z,630
2017-03-20T12:09:21.472Z,825
2017-03-20T12:10:33.718Z,675
2017-03-20T12:11:45.964Z,640
2017-03-20T12:12:57.882Z,650
2017-03-20T12:14:10.104Z,735
2017-03-20T12:15:22.052Z,765
2017-03-20T12:16:33.987Z,945
2017-03-20T12:17:46.241Z,900
2017-03-20T12:18:58.785Z,805
2017-03-20T12:20:10.739Z,720
2017-03-20T12:21:22.956Z,760
2017-03-20T12:22:35.202Z,835
2017-03-20T12:23:47.141Z,805
2017-03-20T12:24:59.397Z,695
2017-03-20T12:26:11.937Z,630
2017-03-20T12:27:24.163Z,575
2017-03-20T12:28:36.458Z,595
2017-03-20T12:29:48.100Z,555
2017-03-20T12:31:00.638Z,455
2017-03-20T12:32:12.867Z,490
2017-03-20T12:33:25.416Z,450
2017-03-20T12:34:37.964Z,400
2017-03-20T12:35:49.924Z,390
2017-03-20T12:37:02.167Z,335
2017-03-20T12:38:14.743Z,330
2017-03-20T12:39:26.987Z,365
2017-03-20T12:40:39.542Z,350
2017-03-20T12:41:52.087Z,420
2017-03-20T12:43:03.711Z,400
2017-03-20T12:44:16.273Z,420
2017-03-20T12:45:28.513Z,445
2017-03-20T12:46:40.187Z,475
2017-03-20T12:47:52.734Z,515
2017-03-20T12:49:04.990Z,530
2017-03-20T12:50:16.937Z,425
2017-03-20T12:51:29.197Z,445
2017-03-20T12:52:41.140Z,545
2017-03-20T12:53:53.684Z,610
2017-03-20T12:55:05.935Z,580
2017-03-20T12:56:18.488Z,520
2017-03-20T12:57:31.032Z,515
2017-03-20T12:58:42.981Z,650
2017-03-20T12:59:55.219Z,800
2017-03-20T13:01:07.768Z,765
2017-03-20T13:02:19.390Z,715
2017-03-20T13:03:31.939Z,755
2017-03-20T13:04:44.184Z,745
2017-03-20T13:05:56.703Z,845
2017-03-20T13:07:09.240Z,840
2017-03-20T13:08:20.903Z,795
2017-03-20T13:09:33.460Z,875
2017-03-20T13:10:46.009Z,855
2017-03-20T13:11:57.952Z,830
2017-03-20T13:13:10.501Z,740
2017-03-20T13:14:22.441Z,735
2017-03-20T13:15:34.695Z,630
2017-03-20T13:16:47.225Z,500
2017-03-20T13:17:59.739Z,525
2017-03-20T13:19:12.328Z,555
2017-03-20T13:20:24.573Z,500
2017-03-20T13:21:36.528Z,310
2017-03-20T13:22:48.747Z,255
2017-03-20T13:24:00.970Z,230
2017-03-20T13:25:13.214Z,245
2017-03-20T13:26:25.408Z,365
2017-03-20T13:27:37.946Z,710
2017-03-20T13:28:50.178Z,990
2017-03-20T13:30:02.720Z,1180
2017-03-20T13:31:15.217Z,1000
2017-03-20T13:32:27.754Z,1040
2017-03-20T13:33:39.711Z,1140
2017-03-20T13:34:52.246Z,1120
2017-03-20T13:36:04.520Z,1155
2017-03-20T13:37:16.762Z,1115
2017-03-20T13:38:29.084Z,1095
2017-03-20T13:39:41.331Z,1080
2017-03-20T13:40:53.600Z,1090
2017-03-20T13:42:05.847Z,1045
2017-03-20T13:43:18.405Z,945
2017-03-20T13:44:30.647Z,760
2017-03-20T13:45:42.587Z,595
2017-03-20T13:46:54.813Z,680
2017-03-20T13:48:07.355Z,515
2017-03-20T13:49:19.897Z,355
2017-03-20T13:50:31.830Z,420
2017-03-20T13:51:44.390Z,630
2017-03-20T13:52:56.948Z,740
2017-03-20T13:54:09.217Z,620
2017-03-20T13:55:21.437Z,495
2017-03-20T13:56:33.604Z,505
2017-03-20T13:57:45.151Z,545
2017-03-20T13:58:57.713Z,655
2017-03-20T14:00:09.352Z,695
2017-03-20T14:01:21.593Z,810
2017-03-20T14:02:33.853Z,750
2017-03-20T14:03:45.790Z,795
2017-03-20T14:04:58.382Z,865
2017-03-20T14:06:10.952Z,730
2017-03-20T14:07:22.898Z,690
2017-03-20T14:08:35.147Z,730
2017-03-20T14:09:47.715Z,780
2017-03-20T14:11:00.227Z,545
2017-03-20T14:12:12.802Z,530
2017-03-20T14:13:25.054Z,520
2017-03-20T14:14:37.621Z,475
2017-03-20T14:15:50.158Z,515
2017-03-20T14:17:02.715Z,505
2017-03-20T14:18:15.261Z,445
2017-03-20T14:19:27.778Z,575
2017-03-20T14:20:40.341Z,615
2017-03-20T14:21:52.865Z,665
2017-03-20T14:23:05.093Z,625
2017-03-20T14:24:17.353Z,610
2017-03-20T14:25:29.590Z,605
2017-03-20T14:26:42.145Z,595
2017-03-20T14:27:54.680Z,575
2017-03-20T14:29:06.921Z,530
2017-03-20T14:30:19.176Z,525
2017-03-20T14:31:30.838Z,565
2017-03-20T14:32:43.401Z,470
2017-03-20T14:33:55.334Z,385
2017-03-20T14:35:07.297Z,345
2017-03-20T14:36:19.852Z,325
2017-03-20T14:37:32.412Z,295
2017-03-20T14:38:44.939Z,310
2017-03-20T14:39:57.160Z,350
2017-03-20T14:41:09.699Z,345
2017-03-20T14:42:21.942Z,350
2017-03-20T14:43:34.489Z,345
2017-03-20T14:44:47.046Z,315
2017-03-20T14:45:59.608Z,290
2017-03-20T14:47:11.854Z,360
2017-03-20T14:48:24.081Z,450
2017-03-20T14:49:36.326Z,510
2017-03-20T14:50:48.828Z,535
2017-03-20T14:52:01.066Z,480
2017-03-20T14:53:13.014Z,455
2017-03-20T14:54:25.555Z,435
2017-03-20T14:55:37.504Z,415
2017-03-20T14:56:50.043Z,430
2017-03-20T14:58:02.577Z,455
2017-03-20T14:59:14.517Z,480
2017-03-20T15:00:26.144Z,510
2017-03-20T15:01:38.677Z,530
2017-03-20T15:02:51.222Z,530
2017-03-20T15:04:03.135Z,495
2017-03-20T15:05:15.658Z,425
2017-03-20T15:06:27.594Z,360
2017-03-20T15:07:39.842Z,365
2017-03-20T15:08:51.782Z,350
2017-03-20T15:10:04.306Z,330
2017-03-20T15:11:16.861Z,370
2017-03-20T15:12:28.826Z,420
2017-03-20T15:13:41.388Z,445
2017-03-20T15:14:53.920Z,490
2017-03-20T15:16:06.478Z,550
2017-03-20T15:17:19.033Z,540
2017-03-20T15:18:31.258Z,510
2017-03-20T15:19:43.492Z,490
2017-03-20T15:20:56.021Z,475
2017-03-20T15:22:08.550Z,435
2017-03-20T15:23:20.806Z,400
2017-03-20T15:24:33.360Z,395
2017-03-20T15:25:45.025Z,370
2017-03-20T15:26:57.577Z,355
2017-03-20T15:28:09.813Z,355
2017-03-20T15:29:22.341Z,335
2017-03-20T15:30:34.314Z,315
2017-03-20T15:31:46.857Z,295
2017-03-20T15:32:59.134Z,265
2017-03-20T15:34:11.396Z,275
2017-03-20T15:35:23.971Z,310
2017-03-20T15:36:36.524Z,315
2017-03-20T15:37:48.790Z,305
2017-03-20T15:39:01.038Z,300
2017-03-20T15:40:13.262Z,320
2017-03-20T15:41:25.817Z,330
2017-03-20T15:42:38.041Z,315
2017-03-20T15:43:49.967Z,305
2017-03-20T15:45:02.188Z,285
2017-03-20T15:46:14.434Z,265
2017-03-20T15:47:26.633Z,270
2017-03-20T15:48:39.197Z,270
2017-03-20T15:49:51.122Z,255
2017-03-20T15:51:03.646Z,255
2017-03-20T15:52:15.563Z,280
2017-03-20T15:53:28.079Z,275
2017-03-20T15:54:40.309Z,265
2017-03-20T15:55:52.844Z,255
2017-03-20T15:57:05.402Z,265
2017-03-20T15:58:18.148Z,260
2017-03-20T15:59:30.385Z,250
2017-03-20T16:00:42.915Z,250
2017-03-20T16:01:55.156Z,245
2017-03-20T16:03:07.395Z,225
2017-03-20T16:04:19.980Z,200
2017-03-20T16:05:31.922Z,160
2017-03-20T16:06:44.467Z,120
2017-03-20T16:07:56.413Z,95
2017-03-20T16:09:08.982Z,90
2017-03-20T16:10:21.519Z,90
2017-03-20T16:11:34.045Z,100
2017-03-20T16:12:46.290Z,110
2017-03-20T16:13:58.840Z,110
2017-03-20T16:15:11.361Z,105
2017-03-20T16:16:23.599Z,80
2017-03-20T16:17:36.131Z,70
2017-03-20T16:18:48.378Z,60
2017-03-20T16:20:00.929Z,55
2017-03-20T16:21:12.885Z,70
2017-03-20T16:22:25.158Z,80
2017-03-20T16:23:37.108Z,65
2017-03-20T16:24:49.653Z,70
2017-03-20T16:26:01.898Z,65
2017-03-20T16:27:14.138Z,65
2017-03-20T16:28:26.394Z,60
2017-03-20T16:29:38.912Z,65
2017-03-20T16:30:51.432Z,65
2017-03-20T16:32:03.384Z,60
2017-03-20T16:33:15.925Z,60
2017-03-20T16:34:27.871Z,65
2017-03-20T16:35:40.109Z,70
2017-03-20T16:36:52.362Z,75
2017-03-20T16:38:04.585Z,65
2017-03-20T16:39:17.090Z,65
2017-03-20T16:40:29.329Z,50
2017-03-20T16:41:41.838Z,40
2017-03-20T16:42:54.085Z,50
2017-03-20T16:44:06.016Z,55
2017-03-20T16:45:18.563Z,65
2017-03-20T16:46:31.083Z,65
2017-03-20T16:47:43.321Z,70
2017-03-20T16:48:55.847Z,65
2017-03-20T16:50:08.088Z,60
2017-03-20T16:51:20.630Z,55
2017-03-20T16:52:33.135Z,50
2017-03-20T16:53:45.329Z,45
2017-03-20T16:54:57.268Z,45
2017-03-20T16:56:09.199Z,40
2017-03-20T16:57:21.448Z,35
2017-03-20T16:58:33.395Z,35
2017-03-20T16:59:45.618Z,35